Time,TemperatureF,DewpointF,PressureIn,WindDirection,WindDirectionDegrees,WindSpeedMPH,WindSpeedGustMPH,Humidity,HourlyPrecipIn,Conditions,Clouds,dailyrainin,SoftwareType,DateUTC
2013-07-08 00:01:00,64.0,64.0,26.94,ESE,103,0.0,0.0,100,0.00,,,-99.99,VWS V12.07,2013-07-08 04:01:00,
2013-07-08 00:31:00,64.0,64.0,26.95,ESE,103,0.0,0.0,100,0.00,,,-99.99,VWS V12.07,2013-07-08 04:31:00,
2013-07-08 01:01:00,64.0,64.0,26.94,ESE,105,82.0,82.0,100,0.00,,,-99.99,VWS V12.07,2013-07-08 05:01:00,
2013-07-08 01:31:00,63.8,63.8,26.94,ESE,105,0.0,5.0,100,0.00,,,-99.99,VWS V12.07,2013-07-08 05:31:00,
2013-07-08 02:01:00,63.5,63.5,26.94,ESE,105,0.0,0.0,100,0.00,,,-99.99,VWS V12.07,2013-07-08 06:01:00,
2013-07-08 02:31:00,63.5,63.5,26.94,ESE,105,0.0,0.0,100,0.00,,,-99.99,VWS V12.07,2013-07-08 06:31:00,
2013-07-08 03:01:00,63.2,63.2,26.93,ESE,105,8.0,8.0,100,0.00,,,-99.99,VWS V12.07,2013-07-08 07:01:00,
2013-07-08 03:31:00,63.2,63.2,26.94,SE,127,7.0,11.0,100,0.00,,,-99.99,VWS V12.07,2013-07-08 07:31:00,
2013-07-08 04:01:00,63.2,63.2,26.93,WSW,240,3.0,6.0,100,0.00,,,-99.99,VWS V12.07,2013-07-08 08:01:00,
2013-07-08 04:31:00,63.2,63.2,26.94,SW,230,7.0,46.0,100,0.00,,,-99.99,VWS V12.07,2013-07-08 08:31:00,
2013-07-08 05:01:00,63.3,63.3,26.94,SSW,192,1.0,6.0,100,0.00,,,-99.99,VWS V12.07,2013-07-08 09:01:00,
2013-07-08 05:31:00,63.3,63.3,26.95,SSW,195,2.0,2.0,100,0.00,,,-99.99,VWS V12.07,2013-07-08 09:31:00,
2013-07-08 06:01:00,63.6,63.6,26.95,SSW,192,2.0,7.0,100,0.00,,,-99.99,VWS V12.07,2013-07-08 10:01:00,
2013-07-08 06:31:00,64.8,64.8,26.95,SSW,192,5.0,8.0,100,0.00,,,-99.99,VWS V12.07,2013-07-08 10:31:00,
2013-07-08 07:01:00,66.2,66.2,26.95,SW,216,1.0,4.0,100,0.00,,,-99.99,VWS V12.07,2013-07-08 11:01:00,
2013-07-08 07:31:00,66.7,66.7,26.95,SSW,203,1.0,7.0,100,0.00,,,-99.99,VWS V12.07,2013-07-08 11:31:00,
2013-07-08 08:01:00,67.5,67.5,26.96,South,175,4.0,7.0,100,0.00,,,-99.99,VWS V12.07,2013-07-08 12:01:00,
2013-07-08 08:31:00,69.2,68.3,26.97,South,182,1.0,6.0,97,0.00,,,-99.99,VWS V12.07,2013-07-08 12:31:00,
2013-07-08 09:01:00,69.5,67.7,26.98,South,170,3.0,5.0,94,0.00,,,-99.99,VWS V12.07,2013-07-08 13:01:00,
2013-07-08 09:31:00,70.3,68.5,26.98,South,169,1.0,5.0,94,0.00,,,-99.99,VWS V12.07,2013-07-08 13:31:00,
2013-07-08 10:01:00,71.7,69.3,26.99,South,169,0.0,0.0,92,0.00,,,-99.99,VWS V12.07,2013-07-08 14:01:00,
2013-07-08 10:31:00,72.7,69.3,26.99,SW,218,5.0,5.0,89,0.00,,,-99.99,VWS V12.07,2013-07-08 14:31:00,
2013-07-08 11:01:00,73.9,68.4,26.99,South,189,0.0,3.0,83,0.00,,,-99.99,VWS V12.07,2013-07-08 15:01:00,
2013-07-08 11:31:00,75.0,68.8,26.99,South,185,4.0,4.0,81,0.00,,,-99.99,VWS V12.07,2013-07-08 15:31:00,
2013-07-08 12:01:00,75.6,68.3,26.99,South,181,0.0,6.0,78,0.00,,,-99.99,VWS V12.07,2013-07-08 16:01:00,
2013-07-08 12:31:00,76.0,66.7,26.98,South,177,4.0,5.0,73,0.00,,,-99.99,VWS V12.07,2013-07-08 16:31:00,
2013-07-08 13:01:00,75.7,68.0,26.98,SSW,207,1.0,4.0,77,0.00,,,-99.99,VWS V12.07,2013-07-08 17:01:00,
2013-07-08 14:01:00,76.5,65.6,26.97,SSW,198,1.0,5.0,69,0.00,,,-99.99,VWS V12.07,2013-07-08 18:01:00,
2013-07-08 14:31:00,76.4,66.7,26.97,WNW,286,1.0,4.0,72,0.00,,,-99.99,VWS V12.07,2013-07-08 18:31:00,
2013-07-08 15:02:00,77.9,66.1,26.96,SSW,201,6.0,6.0,67,0.00,,,-99.99,VWS V12.07,2013-07-08 19:02:00,
2013-07-08 17:31:00,75.1,65.1,26.94,WNW,293,0.0,45.0,71,0.00,,,-99.99,VWS V12.07,2013-07-08 21:31:00,
2013-07-08 18:31:00,74.6,68.0,26.95,WNW,289,0.0,0.0,80,0.00,,,-99.99,VWS V12.07,2013-07-08 22:31:00,
2013-07-08 19:01:00,71.5,68.4,26.95,WNW,289,0.0,0.0,90,0.00,,,-99.99,VWS V12.07,2013-07-08 23:01:00,
2013-07-08 20:01:00,67.5,66.9,26.95,WNW,289,0.0,0.0,98,0.00,,,-99.99,VWS V12.07,2013-07-09 00:01:00,
2013-07-08 21:31:00,65.7,65.7,26.98,WNW,289,0.0,0.0,100,0.00,,,-99.99,VWS V12.07,2013-07-09 01:31:00,
2013-07-08 22:01:00,65.9,65.9,26.98,SW,232,0.0,0.0,100,0.00,,,-99.99,VWS V12.07,2013-07-09 02:01:00,
2013-07-08 22:31:00,67.1,67.1,26.98,SSW,204,7.0,9.0,100,0.00,,,-99.99,VWS V12.07,2013-07-09 02:31:00,
2013-07-08 23:01:00,64.9,64.9,26.97,SSW,204,0.0,0.0,100,0.00,,,-99.99,VWS V12.07,2013-07-09 03:01:00,
2013-07-08 23:31:00,63.6,63.6,26.97,SSW,204,10.0,33.0,100,0.00,,,-99.99,VWS V12.07,2013-07-09 03:31:00,